Time;durP1;ratioP1;P1;durP2;ratioP2;P2;SDS_P1;SDS_P2;PMS_P1;PMS_P2;Temp;Humidity;BMP_temperature;BMP_pressure;BME280_temperature;BME280_humidity;BME280_pressure;Samples;Min_cycle;Max_cycle;Signal;HPM_P1;HPM_P2
2023/01/22 00:02:24;;;;;;;71.65;29.83;;;2.10;99.90;;;;;;5047445;28;20443;-74
2023/01/22 00:04:50;;;;;;;72.07;29.70;;;2.10;99.90;;;;;;5043403;28;20045;-74
2023/01/22 00:07:15;;;;;;;71.30;29.80;;;2.10;99.90;;;;;;5046295;28;20017;-74
2023/01/22 00:09:41;;;;;;;75.25;32.42;;;2.10;99.90;;;;;;5047710;28;20029;-73
2023/01/22 00:12:08;;;;;;;66.00;30.35;;;2.10;99.90;;;;;;5050036;28;20024;-74
2023/01/22 00:14:33;;;;;;;78.40;30.63;;;2.10;99.90;;;;;;5048816;28;20039;-73
2023/01/22 00:16:59;;;;;;;76.82;30.25;;;2.00;99.90;;;;;;5046892;28;20033;-73
2023/01/22 00:19:24;;;;;;;78.00;32.00;;;2.10;99.90;;;;;;5046763;28;20025;-74
2023/01/22 00:21:50;;;;;;;68.35;30.20;;;2.10;99.90;;;;;;5049246;28;20376;-74
2023/01/22 00:24:16;;;;;;;77.22;31.38;;;2.00;99.90;;;;;;5035112;28;20036;-74
2023/01/22 00:26:42;;;;;;;76.40;29.90;;;2.10;99.90;;;;;;5047474;28;20032;-74
2023/01/22 00:29:07;;;;;;;71.10;31.40;;;2.00;99.90;;;;;;5046751;28;20108;-74
2023/01/22 00:31:33;;;;;;;76.03;31.13;;;2.00;99.90;;;;;;5047740;28;20032;-74
2023/01/22 00:33:58;;;;;;;75.07;30.23;;;2.00;99.90;;;;;;5047585;28;20551;-73
2023/01/22 00:36:24;;;;;;;70.55;30.08;;;2.00;99.90;;;;;;5045837;28;20072;-74
2023/01/22 00:38:50;;;;;;;69.18;30.55;;;2.00;99.90;;;;;;5048590;28;20061;-74
2023/01/22 00:41:17;;;;;;;79.18;32.25;;;2.10;99.90;;;;;;5046158;28;20025;-73
2023/01/22 00:43:43;;;;;;;74.38;30.98;;;2.10;99.90;;;;;;5047411;28;20127;-74
2023/01/22 00:46:11;;;;;;;72.10;29.85;;;2.00;99.90;;;;;;5044603;28;20108;-73
2023/01/22 00:48:37;;;;;;;67.78;29.67;;;2.10;99.90;;;;;;5047070;28;20014;-74
2023/01/22 00:51:03;;;;;;;67.38;30.90;;;2.00;99.90;;;;;;5048938;28;20102;-74
2023/01/22 00:53:29;;;;;;;72.88;30.10;;;2.00;99.90;;;;;;5048282;28;20021;-74
2023/01/22 00:55:57;;;;;;;69.55;30.85;;;2.00;99.90;;;;;;5048400;28;20032;-74
2023/01/22 00:58:24;;;;;;;75.07;30.40;;;2.10;99.90;;;;;;5047697;28;20036;-74
2023/01/22 01:00:50;;;;;;;71.88;31.02;;;2.00;99.90;;;;;;5049156;28;20036;-74
2023/01/22 01:03:25;;;;;;;63.83;27.25;;;2.00;99.90;;;;;;5047927;28;20021;-74
2023/01/22 01:05:52;;;;;;;73.78;30.35;;;2.10;99.90;;;;;;5047144;28;20063;-74
2023/01/22 01:08:18;;;;;;;69.85;29.73;;;2.00;99.90;;;;;;5047257;28;20021;-74
2023/01/22 01:10:43;;;;;;;68.82;29.98;;;2.00;99.90;;;;;;5047529;28;20067;-74
2023/01/22 01:13:10;;;;;;;68.15;29.85;;;2.10;99.90;;;;;;5048457;28;20397;-74
2023/01/22 01:15:36;;;;;;;64.35;26.85;;;2.10;99.90;;;;;;5047165;28;20053;-74
2023/01/22 01:18:02;;;;;;;64.32;27.48;;;2.00;99.90;;;;;;5047561;28;20052;-74
2023/01/22 01:20:27;;;;;;;69.93;28.77;;;2.00;99.90;;;;;;5046998;28;20028;-74
2023/01/22 01:22:53;;;;;;;68.32;29.35;;;2.00;99.90;;;;;;5047169;28;20029;-74
2023/01/22 01:25:19;;;;;;;66.38;27.00;;;1.90;99.90;;;;;;5047346;28;20419;-74
2023/01/22 01:27:44;;;;;;;65.13;26.88;;;1.90;99.90;;;;;;5048021;28;20039;-74
2023/01/22 01:30:10;;;;;;;67.68;27.88;;;1.90;99.90;;;;;;5046435;28;20021;-74
2023/01/22 01:32:36;;;;;;;68.47;27.70;;;1.90;99.90;;;;;;5047929;28;20355;-74
2023/01/22 01:35:01;;;;;;;64.20;28.40;;;1.90;99.90;;;;;;5048857;28;20072;-74
2023/01/22 01:37:27;;;;;;;71.82;29.05;;;1.90;99.90;;;;;;5046799;28;20021;-73
2023/01/22 01:39:52;;;;;;;63.47;28.45;;;1.90;99.90;;;;;;5046669;28;20403;-74
2023/01/22 01:42:24;;;;;;;72.25;29.75;;;1.90;99.90;;;;;;5046553;28;20389;-73
2023/01/22 01:45:30;;;;;;;64.80;28.60;;;1.90;99.90;;;;;;5046551;28;20063;-74
2023/01/22 01:48:11;;;;;;;67.13;30.48;;;1.80;99.90;;;;;;5048564;28;20040;-73
2023/01/22 01:50:39;;;;;;;68.15;29.75;;;1.80;99.90;;;;;;5048457;28;20029;-74
2023/01/22 01:53:06;;;;;;;66.13;29.13;;;1.80;99.90;;;;;;5047883;28;20021;-74
2023/01/22 01:55:34;;;;;;;64.72;27.77;;;1.80;99.90;;;;;;5047047;28;20075;-74
2023/01/22 01:58:05;;;;;;;61.17;26.65;;;1.70;99.90;;;;;;5048074;28;20505;-74
2023/01/22 02:00:34;;;;;;;63.50;27.80;;;1.70;99.90;;;;;;5047793;28;20021;-74
2023/01/22 02:03:00;;;;;;;64.75;28.25;;;1.70;99.90;;;;;;5048757;28;20283;-74
2023/01/22 02:05:29;;;;;;;65.72;28.65;;;1.60;99.90;;;;;;5047673;28;20033;-73
2023/01/22 02:07:55;;;;;;;61.38;27.45;;;1.60;99.90;;;;;;5045569;28;20030;-74
2023/01/22 02:10:20;;;;;;;61.42;28.08;;;1.40;99.90;;;;;;5050237;28;20029;-73
2023/01/22 02:12:46;;;;;;;63.40;28.88;;;1.50;99.90;;;;;;5040323;28;20097;-73
2023/01/22 02:15:13;;;;;;;63.60;29.23;;;1.50;99.90;;;;;;5041769;28;20462;-74
2023/01/22 02:17:39;;;;;;;60.28;27.52;;;1.50;99.90;;;;;;5040971;28;20466;-73
2023/01/22 02:20:05;;;;;;;64.20;28.08;;;1.50;99.90;;;;;;5048158;28;20040;-74
2023/01/22 02:22:34;;;;;;;60.10;28.13;;;1.50;99.90;;;;;;5041401;28;20072;-74
2023/01/22 02:25:01;;;;;;;63.50;28.38;;;1.50;99.90;;;;;;5042884;28;20045;-77
2023/01/22 02:27:26;;;;;;;61.58;26.70;;;1.40;99.90;;;;;;5040456;28;20466;-77
2023/01/22 02:29:52;;;;;;;58.53;26.75;;;1.40;99.90;;;;;;5041988;28;20071;-77
2023/01/22 02:32:18;;;;;;;60.53;27.17;;;1.40;99.90;;;;;;5042065;28;20043;-74
2023/01/22 02:34:43;;;;;;;59.70;28.42;;;1.40;99.90;;;;;;5042736;28;20029;-74
2023/01/22 02:37:09;;;;;;;63.92;27.90;;;1.50;99.90;;;;;;5045469;28;20048;-73
2023/01/22 02:39:35;;;;;;;62.67;27.85;;;1.50;99.90;;;;;;5043199;28;20022;-74
2023/01/22 02:42:02;;;;;;;63.70;27.73;;;1.50;99.90;;;;;;5044209;28;20076;-73
2023/01/22 02:44:28;;;;;;;63.40;27.33;;;1.50;99.90;;;;;;5045181;28;20029;-74
2023/01/22 02:46:54;;;;;;;61.22;27.67;;;1.50;99.90;;;;;;5045856;28;20137;-74
2023/01/22 02:49:19;;;;;;;58.60;25.75;;;1.60;99.90;;;;;;5044085;28;20017;-74
2023/01/22 02:51:45;;;;;;;62.38;27.02;;;1.60;99.90;;;;;;5045547;28;20025;-74
2023/01/22 02:54:10;;;;;;;58.95;26.88;;;1.60;99.90;;;;;;5046590;28;20104;-74
2023/01/22 02:56:36;;;;;;;60.88;28.80;;;1.60;99.90;;;;;;5044766;28;20013;-74
2023/01/22 02:59:03;;;;;;;62.35;28.83;;;1.50;99.90;;;;;;5044513;28;20057;-74
2023/01/22 03:01:29;;;;;;;65.18;29.75;;;1.60;99.90;;;;;;5043438;28;20021;-74
2023/01/22 03:03:57;;;;;;;59.47;28.30;;;1.60;99.90;;;;;;5049316;28;20555;-74
2023/01/22 03:06:25;;;;;;;62.20;27.42;;;1.60;99.90;;;;;;5045095;28;20027;-74
2023/01/22 03:08:59;;;;;;;60.50;26.98;;;1.50;99.90;;;;;;5045152;28;20108;-74
2023/01/22 03:11:27;;;;;;;60.85;25.33;;;1.50;99.90;;;;;;5043272;28;20026;-74
2023/01/22 03:22:08;;;;;;;50.13;24.25;;;1.70;99.90;;;;;;5044852;28;20036;-74
2023/01/22 03:24:34;;;;;;;53.60;25.52;;;1.70;99.90;;;;;;5042068;28;20029;-74
2023/01/22 03:27:00;;;;;;;49.28;25.27;;;1.60;99.90;;;;;;5045230;28;20072;-74
2023/01/22 03:29:25;;;;;;;52.63;24.20;;;1.60;99.90;;;;;;5042946;28;20129;-74
2023/01/22 03:31:51;;;;;;;55.72;23.98;;;1.60;99.90;;;;;;5044032;28;20521;-74
2023/01/22 03:34:19;;;;;;;51.25;24.05;;;1.60;99.90;;;;;;5044468;28;20029;-74
2023/01/22 03:36:46;;;;;;;47.47;22.75;;;1.70;99.90;;;;;;5044239;28;20041;-74
2023/01/22 03:39:12;;;;;;;45.88;23.73;;;1.70;99.90;;;;;;5043441;28;20032;-74
2023/01/22 03:41:38;;;;;;;46.90;23.52;;;1.70;99.90;;;;;;5042980;28;20017;-74
2023/01/22 03:44:05;;;;;;;51.60;23.83;;;1.60;99.90;;;;;;5046870;28;20503;-75
2023/01/22 03:46:31;;;;;;;49.22;24.63;;;1.60;99.90;;;;;;5043012;28;20025;-74
2023/01/22 03:48:56;;;;;;;51.30;25.00;;;1.60;99.90;;;;;;5045398;28;20485;-74
2023/01/22 03:51:23;;;;;;;46.80;22.98;;;1.70;99.90;;;;;;5042927;28;20006;-74
2023/01/22 03:53:49;;;;;;;46.00;22.33;;;1.70;99.90;;;;;;5050532;28;20123;-75
2023/01/22 03:56:24;;;;;;;45.20;22.50;;;1.70;99.90;;;;;;5042717;28;20032;-74
2023/01/22 03:58:50;;;;;;;46.55;23.48;;;1.70;99.90;;;;;;5043484;28;20086;-74
2023/01/22 04:01:19;;;;;;;47.42;22.27;;;1.60;99.90;;;;;;5044447;28;20044;-74
2023/01/22 04:03:44;;;;;;;45.67;22.13;;;1.60;99.90;;;;;;5043522;28;20105;-74
2023/01/22 04:06:11;;;;;;;40.75;20.92;;;1.60;99.90;;;;;;5058229;28;20111;-75
2023/01/22 04:08:39;;;;;;;46.80;22.38;;;1.60;99.90;;;;;;5046504;28;20020;-74
2023/01/22 04:11:05;;;;;;;46.95;23.75;;;1.60;99.90;;;;;;5045960;28;20063;-74
2023/01/22 04:13:33;;;;;;;46.58;23.35;;;1.60;99.90;;;;;;5044681;28;20541;-75
2023/01/22 04:15:59;;;;;;;51.10;24.38;;;1.60;99.90;;;;;;5046543;28;20017;-74
2023/01/22 04:18:24;;;;;;;48.15;23.38;;;1.60;99.90;;;;;;5059382;28;20024;-75
2023/01/22 04:20:51;;;;;;;51.22;24.00;;;1.60;99.90;;;;;;5043516;28;20074;-74
2023/01/22 04:23:18;;;;;;;47.88;23.92;;;1.60;99.90;;;;;;5045347;28;20104;-75
2023/01/22 04:25:44;;;;;;;46.85;23.45;;;1.60;99.90;;;;;;5042678;28;20037;-74
2023/01/22 04:28:11;;;;;;;50.95;26.05;;;1.60;99.90;;;;;;5050091;28;20029;-75
2023/01/22 04:30:37;;;;;;;47.85;24.00;;;1.60;99.90;;;;;;5047649;28;20110;-74
2023/01/22 04:33:03;;;;;;;45.75;22.77;;;1.60;99.90;;;;;;5040228;28;20033;-75
2023/01/22 04:35:29;;;;;;;53.53;23.02;;;1.50;99.90;;;;;;5042518;28;20025;-74
2023/01/22 04:37:56;;;;;;;46.90;23.10;;;1.50;99.90;;;;;;5043822;28;20112;-74
2023/01/22 04:40:21;;;;;;;49.10;23.30;;;1.50;99.90;;;;;;5032038;28;20148;-74
2023/01/22 04:42:47;;;;;;;46.58;22.17;;;1.40;99.90;;;;;;5053307;28;20520;-74
2023/01/22 04:45:13;;;;;;;48.38;23.40;;;1.40;99.90;;;;;;5062209;28;20044;-74
2023/01/22 04:47:43;;;;;;;45.05;21.63;;;1.50;99.90;;;;;;5048118;28;20049;-74
2023/01/22 04:50:16;;;;;;;49.15;23.38;;;1.50;99.90;;;;;;5053022;28;20103;-74
2023/01/22 04:52:41;;;;;;;;;;;1.40;99.90;;;;;;5040729;28;20231;-74
2023/01/22 04:55:08;;;;;;;46.40;22.73;;;1.40;99.90;;;;;;5033586;28;20288;-74
2023/01/22 04:57:35;;;;;;;49.00;23.48;;;1.50;99.90;;;;;;5046466;28;20025;-74
2023/01/22 05:00:01;;;;;;;48.47;24.33;;;1.50;99.90;;;;;;5045342;28;20021;-74
2023/01/22 05:02:27;;;;;;;47.50;23.75;;;1.40;99.90;;;;;;5046485;28;20032;-74
2023/01/22 05:04:52;;;;;;;50.33;23.45;;;1.40;99.90;;;;;;5047568;28;20382;-74
2023/01/22 05:07:18;;;;;;;46.10;21.70;;;1.40;99.90;;;;;;5048228;28;20100;-74
2023/01/22 05:09:44;;;;;;;48.78;22.88;;;1.40;99.90;;;;;;5046952;28;20029;-74
2023/01/22 05:12:09;;;;;;;48.97;24.27;;;1.40;99.90;;;;;;5046323;28;20028;-74
2023/01/22 05:14:35;;;;;;;45.78;22.38;;;1.40;99.90;;;;;;5046305;28;20033;-74
2023/01/22 05:17:00;;;;;;;47.72;23.13;;;1.40;99.90;;;;;;5048049;28;20024;-74
2023/01/22 05:19:26;;;;;;;46.88;23.45;;;1.40;99.90;;;;;;5048352;28;20055;-74
2023/01/22 05:21:51;;;;;;;44.25;21.90;;;1.40;99.90;;;;;;5048576;28;20071;-74
2023/01/22 05:24:17;;;;;;;44.53;22.27;;;1.40;99.90;;;;;;5046969;28;20039;-73
2023/01/22 05:26:43;;;;;;;45.63;23.08;;;1.40;99.90;;;;;;5046574;28;20090;-74
2023/01/22 05:29:09;;;;;;;47.42;23.10;;;1.40;99.90;;;;;;5046867;28;20028;-74
2023/01/22 05:31:35;;;;;;;40.53;20.63;;;1.40;99.90;;;;;;5047543;28;20017;-74
2023/01/22 05:34:01;;;;;;;47.20;22.75;;;1.40;99.90;;;;;;5047251;28;20037;-74
2023/01/22 05:36:26;;;;;;;47.83;23.13;;;1.40;99.90;;;;;;5047311;28;20032;-74
2023/01/22 05:38:52;;;;;;;44.03;22.80;;;1.40;99.90;;;;;;5046928;28;20024;-74
2023/01/22 05:41:18;;;;;;;47.22;22.15;;;1.40;99.90;;;;;;5048386;28;20105;-74
2023/01/22 05:43:43;;;;;;;45.22;22.67;;;1.40;99.90;;;;;;5047754;28;20035;-74
2023/01/22 05:46:09;;;;;;;47.50;22.55;;;1.30;99.90;;;;;;5046692;28;20040;-74
2023/01/22 05:48:35;;;;;;;43.70;22.27;;;1.40;99.90;;;;;;5047720;28;20180;-74
2023/01/22 05:51:05;;;;;;;51.60;23.30;;;1.40;99.90;;;;;;5047774;28;20037;-74
2023/01/22 05:53:31;;;;;;;47.13;22.92;;;1.30;99.90;;;;;;5042789;28;20029;-74
2023/01/22 05:56:05;;;;;;;45.47;22.73;;;1.40;99.90;;;;;;5047947;28;20037;-74
2023/01/22 05:58:31;;;;;;;47.17;23.02;;;1.40;99.90;;;;;;5046391;28;20078;-74
2023/01/22 06:00:58;;;;;;;48.40;24.10;;;1.40;99.90;;;;;;5046920;28;20029;-74
2023/01/22 06:03:24;;;;;;;45.50;24.60;;;1.50;99.90;;;;;;5047658;28;20033;-74
2023/01/22 06:06:16;;;;;;;48.22;24.45;;;1.50;99.90;;;;;;5046860;28;20040;-74
2023/01/22 06:08:41;;;;;;;48.92;22.98;;;1.50;99.90;;;;;;5046944;28;20033;-74
2023/01/22 06:11:10;;;;;;;46.22;21.95;;;1.60;99.90;;;;;;5051734;28;20493;-74
2023/01/22 06:13:37;;;;;;;45.13;22.55;;;1.60;99.90;;;;;;5050785;28;20488;-74
2023/01/22 06:16:04;;;;;;;46.03;22.08;;;1.60;99.90;;;;;;5051493;28;20055;-74
2023/01/22 06:18:30;;;;;;;45.15;22.55;;;1.60;99.90;;;;;;5051551;28;20040;-74
2023/01/22 06:21:00;;;;;;;50.75;23.52;;;1.60;99.90;;;;;;5051773;28;20025;-74
2023/01/22 06:23:26;;;;;;;46.28;22.92;;;1.60;99.90;;;;;;5049166;28;20064;-74
2023/01/22 06:25:53;;;;;;;44.15;22.63;;;1.60;99.90;;;;;;5050310;28;20032;-74
2023/01/22 06:28:20;;;;;;;42.35;22.75;;;1.60;99.90;;;;;;5049482;28;20025;-74
2023/01/22 06:30:45;;;;;;;45.63;22.67;;;1.60;99.90;;;;;;5049854;28;20027;-75
2023/01/22 06:33:11;;;;;;;42.67;20.70;;;1.60;99.90;;;;;;5049693;28;20041;-74
2023/01/22 06:35:37;;;;;;;45.38;21.17;;;1.60;99.90;;;;;;5050637;28;20021;-74
2023/01/22 06:38:03;;;;;;;42.78;21.40;;;1.60;99.90;;;;;;5050604;28;20029;-74
2023/01/22 06:40:28;;;;;;;41.38;20.55;;;1.70;99.90;;;;;;5049600;28;20599;-74
2023/01/22 06:42:54;;;;;;;42.88;20.90;;;1.70;99.90;;;;;;5048975;28;20374;-74
2023/01/22 06:45:20;;;;;;;39.35;21.13;;;1.70;99.90;;;;;;5049354;28;20033;-74
2023/01/22 06:47:45;;;;;;;44.38;21.73;;;1.80;99.90;;;;;;5050901;28;20028;-74
2023/01/22 06:50:12;;;;;;;43.95;20.88;;;1.80;99.90;;;;;;5050564;28;20031;-74
2023/01/22 06:52:38;;;;;;;42.13;21.05;;;1.70;99.90;;;;;;5050454;28;20056;-74
2023/01/22 06:55:04;;;;;;;39.55;20.02;;;1.80;99.90;;;;;;5064279;28;20071;-74
2023/01/22 06:57:30;;;;;;;43.15;21.40;;;1.80;99.90;;;;;;5050531;28;20074;-75
2023/01/22 06:59:55;;;;;;;40.85;20.63;;;1.80;99.90;;;;;;5050170;28;20415;-74
2023/01/22 07:02:21;;;;;;;43.47;20.85;;;1.80;99.90;;;;;;5049694;28;20020;-74
2023/01/22 07:04:47;;;;;;;38.30;20.95;;;1.80;99.90;;;;;;5049696;28;20403;-74
2023/01/22 07:07:12;;;;;;;41.80;21.08;;;1.80;99.90;;;;;;5050042;28;20047;-74
2023/01/22 07:09:38;;;;;;;38.03;21.33;;;1.80;99.90;;;;;;5049587;28;20381;-75
2023/01/22 07:12:04;;;;;;;44.75;20.60;;;1.90;99.90;;;;;;5050675;28;20021;-75
2023/01/22 07:14:29;;;;;;;38.97;21.02;;;1.80;99.90;;;;;;5050143;28;20040;-75
2023/01/22 07:16:56;;;;;;;35.03;18.08;;;1.80;99.90;;;;;;5050475;28;20025;-74
2023/01/22 07:19:22;;;;;;;38.90;19.02;;;1.80;99.90;;;;;;5047918;28;20143;-74
2023/01/22 07:21:48;;;;;;;35.67;19.40;;;1.80;99.90;;;;;;5046693;28;20086;-75
2023/01/22 07:24:13;;;;;;;42.42;20.23;;;1.90;99.90;;;;;;5047190;28;20029;-74
2023/01/22 07:26:39;;;;;;;40.20;20.00;;;1.90;99.90;;;;;;5049866;28;20041;-74
2023/01/22 07:29:05;;;;;;;39.95;20.48;;;2.00;99.90;;;;;;5048210;28;20009;-74
2023/01/22 07:31:31;;;;;;;33.17;17.63;;;2.00;99.90;;;;;;5048657;28;20045;-74
2023/01/22 07:33:56;;;;;;;37.88;19.80;;;2.00;99.90;;;;;;5047723;28;20099;-74
2023/01/22 07:36:22;;;;;;;37.67;20.15;;;2.00;99.90;;;;;;5049811;28;20037;-74
2023/01/22 07:38:48;;;;;;;35.67;20.65;;;2.00;99.90;;;;;;5049869;28;20377;-74
2023/01/22 07:41:14;;;;;;;36.28;19.08;;;2.00;99.90;;;;;;5065219;28;20017;-74
2023/01/22 07:43:39;;;;;;;40.35;20.83;;;2.00;99.90;;;;;;5045179;28;20025;-74
2023/01/22 07:46:06;;;;;;;36.90;20.20;;;2.00;99.90;;;;;;5047024;28;20036;-74
2023/01/22 07:48:32;;;;;;;38.15;20.35;;;2.00;99.90;;;;;;5047605;28;20009;-74
2023/01/22 07:51:03;;;;;;;36.72;18.83;;;2.00;99.90;;;;;;5040247;28;20044;-74
2023/01/22 07:53:29;;;;;;;39.92;18.25;;;2.00;99.90;;;;;;5045016;28;20017;-75
2023/01/22 07:55:54;;;;;;;35.80;19.42;;;2.00;99.90;;;;;;5042115;28;20039;-75
2023/01/22 07:58:20;;;;;;;43.50;20.70;;;2.10;99.90;;;;;;5043266;28;20105;-75
2023/01/22 08:00:46;;;;;;;35.30;18.98;;;2.10;99.90;;;;;;5045970;28;20071;-74
2023/01/22 08:03:14;;;;;;;38.85;20.50;;;2.10;99.90;;;;;;5046010;28;20036;-74
2023/01/22 08:05:41;;;;;;;39.05;19.80;;;2.10;99.90;;;;;;5048421;28;20033;-75
2023/01/22 08:08:15;;;;;;;41.72;19.90;;;2.10;99.90;;;;;;5048490;28;20029;-74
2023/01/22 08:10:41;;;;;;;39.10;19.50;;;2.10;99.90;;;;;;5048194;28;20028;-75
2023/01/22 08:13:07;;;;;;;38.05;20.90;;;2.20;99.90;;;;;;5043442;28;20024;-74
2023/01/22 08:15:33;;;;;;;42.58;21.73;;;2.10;99.90;;;;;;5047686;28;20017;-75
2023/01/22 08:17:58;;;;;;;37.03;19.55;;;2.20;99.90;;;;;;5048596;28;20035;-75
2023/01/22 08:20:24;;;;;;;38.47;20.85;;;2.20;99.90;;;;;;5048927;28;20374;-75
2023/01/22 08:22:50;;;;;;;39.38;21.08;;;2.20;99.90;;;;;;5045696;28;20084;-74
2023/01/22 08:25:16;;;;;;;40.60;21.80;;;2.30;99.90;;;;;;5047270;28;20045;-75
2023/01/22 08:27:41;;;;;;;42.65;20.63;;;2.30;99.90;;;;;;5049027;28;20100;-74
2023/01/22 08:30:10;;;;;;;38.22;20.48;;;2.30;99.90;;;;;;5046511;28;20021;-74
2023/01/22 08:32:37;;;;;;;45.85;20.75;;;2.30;99.90;;;;;;5045189;28;20035;-74
2023/01/22 08:35:03;;;;;;;38.03;20.65;;;2.30;99.90;;;;;;5048053;28;20027;-74
2023/01/22 08:37:29;;;;;;;40.72;21.08;;;2.30;99.90;;;;;;5048420;28;20429;-74
2023/01/22 08:39:55;;;;;;;46.20;20.60;;;2.30;99.90;;;;;;5049001;28;20040;-74
2023/01/22 08:42:20;;;;;;;40.05;21.40;;;2.30;99.90;;;;;;5048531;28;20044;-74
2023/01/22 08:44:46;;;;;;;42.63;20.98;;;2.40;99.90;;;;;;5047391;28;20029;-73
2023/01/22 08:47:11;;;;;;;42.92;22.13;;;2.40;99.90;;;;;;5046687;28;20060;-74
2023/01/22 08:49:37;;;;;;;40.47;21.27;;;2.50;99.90;;;;;;5047468;28;20033;-74
2023/01/22 08:52:03;;;;;;;40.13;21.40;;;2.60;99.90;;;;;;5047852;28;20021;-73
2023/01/22 08:54:28;;;;;;;38.13;21.25;;;2.60;99.90;;;;;;5044078;28;20032;-74
2023/01/22 08:56:54;;;;;;;40.33;21.77;;;2.60;99.90;;;;;;5047742;28;20033;-73
2023/01/22 08:59:20;;;;;;;42.58;21.90;;;2.60;99.90;;;;;;5047588;28;20440;-73
2023/01/22 09:01:45;;;;;;;43.05;22.17;;;2.60;99.90;;;;;;5046779;28;20021;-73
2023/01/22 09:04:11;;;;;;;37.70;19.60;;;2.60;99.90;;;;;;5048040;28;20060;-73
2023/01/22 09:06:37;;;;;;;44.75;22.17;;;2.60;99.90;;;;;;5047885;28;20539;-73
2023/01/22 09:09:05;;;;;;;42.90;22.67;;;2.60;99.90;;;;;;5044474;28;20095;-73
2023/01/22 09:11:31;;;;;;;43.85;21.98;;;2.60;99.90;;;;;;5038421;28;20029;-74
2023/01/22 09:13:57;;;;;;;40.55;21.67;;;2.60;99.90;;;;;;5043007;28;20021;-74
2023/01/22 09:16:24;;;;;;;41.70;22.95;;;2.70;99.90;;;;;;5041734;28;20068;-74
2023/01/22 09:18:50;;;;;;;47.72;23.63;;;2.60;99.90;;;;;;5041783;28;20037;-72
2023/01/22 09:21:16;;;;;;;39.17;22.17;;;2.70;99.90;;;;;;5045930;28;20032;-73
2023/01/22 09:23:42;;;;;;;47.42;21.13;;;2.70;99.90;;;;;;5041969;28;20057;-74
2023/01/22 09:26:07;;;;;;;40.15;21.52;;;2.60;99.90;;;;;;5043374;28;20025;-74
2023/01/22 09:28:33;;;;;;;40.55;22.08;;;2.70;99.90;;;;;;5040986;28;20020;-74
2023/01/22 09:30:58;;;;;;;39.38;21.67;;;2.70;99.90;;;;;;5045418;28;20461;-74
2023/01/22 09:33:24;;;;;;;35.15;20.20;;;2.70;99.90;;;;;;5042826;28;20033;-74
2023/01/22 09:35:50;;;;;;;37.70;20.52;;;2.80;99.90;;;;;;5045721;28;20048;-74
2023/01/22 09:38:17;;;;;;;38.75;21.17;;;2.80;99.90;;;;;;5041268;28;20049;-74
2023/01/22 09:41:01;;;;;;;34.40;20.98;;;2.80;99.90;;;;;;5042590;28;20024;-74
2023/01/22 09:43:53;;;;;;;40.40;21.17;;;2.80;99.90;;;;;;5038001;28;20421;-74
2023/01/22 09:46:26;;;;;;;38.00;19.63;;;2.80;99.90;;;;;;5044179;28;20039;-74
2023/01/22 09:49:07;;;;;;;40.53;20.70;;;2.80;99.90;;;;;;5039672;28;20017;-74
2023/01/22 09:51:34;;;;;;;34.45;19.42;;;2.90;99.90;;;;;;5044344;28;20169;-74
2023/01/22 09:54:03;;;;;;;37.08;19.75;;;2.90;99.90;;;;;;5044771;28;20382;-74
2023/01/22 09:56:51;;;;;;;38.60;21.25;;;2.80;99.90;;;;;;5046421;28;20025;-74
2023/01/22 09:59:18;;;;;;;33.30;20.35;;;2.80;99.90;;;;;;5046186;28;20036;-73
2023/01/22 10:01:55;;;;;;;35.58;19.10;;;3.00;99.90;;;;;;5048581;28;20050;-73
2023/01/22 10:04:33;;;;;;;35.53;20.38;;;3.00;99.90;;;;;;5046393;28;20037;-73
2023/01/22 10:07:00;;;;;;;36.88;19.90;;;3.00;99.90;;;;;;5044806;28;20025;-73
2023/01/22 10:09:29;;;;;;;34.33;19.60;;;3.10;99.90;;;;;;5045277;28;20032;-74
2023/01/22 10:11:56;;;;;;;30.33;17.73;;;3.10;99.90;;;;;;5030860;28;20082;-74
2023/01/22 10:14:26;;;;;;;33.25;19.23;;;3.00;99.90;;;;;;5046108;28;20147;-74
2023/01/22 10:16:52;;;;;;;31.60;18.85;;;3.00;99.90;;;;;;5042192;28;20033;-74
2023/01/22 10:19:43;;;;;;;30.17;18.42;;;3.00;99.90;;;;;;5044116;28;20017;-74
2023/01/22 10:22:24;;;;;;;33.30;18.77;;;3.10;99.90;;;;;;5041991;28;20037;-74
2023/01/22 10:24:50;;;;;;;35.58;18.58;;;3.00;99.90;;;;;;5043138;28;20367;-74
2023/01/22 10:27:20;;;;;;;29.48;17.30;;;3.10;99.90;;;;;;5045841;28;20472;-73
2023/01/22 10:30:00;;;;;;;34.53;17.33;;;3.10;99.90;;;;;;5045960;28;20131;-74
2023/01/22 10:32:28;;;;;;;30.25;17.60;;;3.20;99.90;;;;;;5046919;28;20037;-74
2023/01/22 10:35:19;;;;;;;34.90;18.25;;;3.20;99.90;;;;;;5046791;28;20020;-74
2023/01/22 10:37:53;;;;;;;30.70;16.33;;;3.10;99.90;;;;;;5046368;28;20025;-74
2023/01/22 10:40:36;;;;;;;29.17;17.88;;;3.10;99.90;;;;;;5044536;28;20021;-74
2023/01/22 10:43:16;;;;;;;32.85;17.90;;;3.10;99.90;;;;;;5045462;28;20079;-74
2023/01/22 10:45:55;;;;;;;28.70;16.88;;;3.10;99.90;;;;;;5045748;28;20099;-74
2023/01/22 10:48:22;;;;;;;30.17;17.02;;;3.10;99.90;;;;;;5044544;28;20033;-74
2023/01/22 10:51:10;;;;;;;29.58;16.83;;;3.20;99.90;;;;;;5042220;28;20021;-73
2023/01/22 10:53:42;;;;;;;29.42;16.30;;;3.20;99.90;;;;;;5041681;28;20021;-74
2023/01/22 10:56:11;;;;;;;29.02;16.02;;;3.20;99.90;;;;;;5042732;28;20533;-73
2023/01/22 10:58:38;;;;;;;27.88;15.43;;;3.10;99.90;;;;;;5043657;28;20354;-74
2023/01/22 11:01:19;;;;;;;28.13;15.88;;;3.20;99.90;;;;;;5046732;28;20059;-73
2023/01/22 11:03:44;;;;;;;24.85;15.77;;;3.20;99.90;;;;;;5049672;28;20087;-74
2023/01/22 11:06:14;;;;;;;30.40;16.58;;;3.20;99.90;;;;;;5049951;28;20519;-74
2023/01/22 11:09:02;;;;;;;26.88;15.55;;;3.30;99.90;;;;;;5048395;28;20023;-74
2023/01/22 11:12:12;;;;;;;26.77;15.63;;;3.30;99.90;;;;;;5050360;28;20073;-73
2023/01/22 11:14:38;;;;;;;27.30;15.45;;;3.30;99.90;;;;;;5047903;28;20108;-73
2023/01/22 11:17:27;;;;;;;33.35;16.60;;;3.30;99.90;;;;;;5045839;28;20028;-73
2023/01/22 11:20:02;;;;;;;25.00;14.60;;;3.30;99.90;;;;;;5048289;28;20031;-73
2023/01/22 11:22:36;;;;;;;27.98;16.05;;;3.40;99.90;;;;;;5048629;28;20465;-73
2023/01/22 11:25:02;;;;;;;29.88;16.75;;;3.40;99.90;;;;;;5048445;28;20044;-74
2023/01/22 11:28:07;;;;;;;29.45;16.98;;;3.40;99.90;;;;;;5049151;28;20040;-74
2023/01/22 11:30:43;;;;;;;34.55;16.08;;;3.40;99.90;;;;;;5046347;28;20029;-73
2023/01/22 11:33:38;;;;;;;25.63;15.98;;;3.40;99.90;;;;;;5049279;28;20025;-74
2023/01/22 11:36:27;;;;;;;25.58;15.40;;;3.40;99.90;;;;;;5047444;28;20021;-74
2023/01/22 11:38:58;;;;;;;25.83;16.15;;;3.40;99.90;;;;;;5048248;28;20028;-74
2023/01/22 11:41:54;;;;;;;29.17;16.30;;;3.40;99.90;;;;;;5047795;28;20381;-74
2023/01/22 11:44:48;;;;;;;24.52;15.25;;;3.40;99.90;;;;;;5047734;28;20082;-73
2023/01/22 11:47:19;;;;;;;27.10;15.38;;;3.40;99.90;;;;;;5046209;28;20025;-73
2023/01/22 11:49:56;;;;;;;26.67;16.00;;;3.40;99.90;;;;;;5049015;28;20059;-74
2023/01/22 11:52:43;;;;;;;24.05;15.00;;;3.50;99.90;;;;;;5046668;28;20116;-74
2023/01/22 11:55:26;;;;;;;30.10;16.63;;;3.30;99.90;;;;;;5047688;28;20025;-74
2023/01/22 11:58:14;;;;;;;27.50;16.30;;;3.40;99.90;;;;;;5049370;28;20029;-74
2023/01/22 12:00:43;;;;;;;27.38;16.13;;;3.40;99.90;;;;;;5047681;28;20043;-74
2023/01/22 12:03:21;;;;;;;24.40;15.15;;;3.50;99.90;;;;;;5045225;28;20648;-74
2023/01/22 12:06:11;;;;;;;27.90;16.15;;;3.50;99.90;;;;;;5047025;28;20143;-74
2023/01/22 12:08:46;;;;;;;25.58;16.10;;;3.50;99.90;;;;;;5046149;28;20017;-74
2023/01/22 12:11:52;;;;;;;26.25;15.93;;;3.60;99.90;;;;;;5047445;28;20032;-74
2023/01/22 12:14:24;;;;;;;24.83;14.98;;;3.50;99.90;;;;;;5043664;28;20033;-74
2023/01/22 12:17:12;;;;;;;30.08;15.85;;;3.60;99.90;;;;;;5045999;28;20033;-74
2023/01/22 12:19:47;;;;;;;24.33;15.48;;;3.60;99.90;;;;;;5044728;28;20028;-74
2023/01/22 12:22:21;;;;;;;31.50;16.48;;;3.60;99.90;;;;;;5042065;28;20033;-74
2023/01/22 12:24:59;;;;;;;22.27;14.70;;;3.70;99.90;;;;;;5046299;28;20041;-74
2023/01/22 12:27:34;;;;;;;28.88;16.13;;;3.70;99.90;;;;;;5041633;28;20112;-74
2023/01/22 12:30:18;;;;;;;22.80;15.10;;;3.80;99.90;;;;;;5045402;28;20017;-75
2023/01/22 12:32:53;;;;;;;27.83;15.60;;;3.80;99.90;;;;;;5047342;28;20030;-75
2023/01/22 12:35:21;;;;;;;22.63;14.80;;;3.80;99.90;;;;;;5046932;28;20033;-75
2023/01/22 12:37:56;;;;;;;28.08;15.10;;;3.80;99.90;;;;;;5042148;28;20017;-75
2023/01/22 12:40:53;;;;;;;24.40;15.40;;;3.80;99.90;;;;;;5044814;28;20028;-75
2023/01/22 12:43:32;;;;;;;25.33;14.88;;;3.70;99.90;;;;;;5044147;28;20036;-74
2023/01/22 12:46:14;;;;;;;23.95;14.50;;;3.80;99.90;;;;;;5040520;28;20048;-75
2023/01/22 12:48:55;;;;;;;23.27;13.13;;;3.80;99.90;;;;;;5043823;28;20020;-75
2023/01/22 12:51:34;;;;;;;21.80;13.27;;;3.80;99.90;;;;;;5039149;28;22020;-75
2023/01/22 12:54:19;;;;;;;22.35;14.02;;;3.70;99.90;;;;;;5044633;28;20037;-76
2023/01/22 12:56:45;;;;;;;21.45;14.35;;;3.80;99.90;;;;;;5038456;28;20044;-75
2023/01/22 12:59:35;;;;;;;22.88;14.43;;;3.70;99.90;;;;;;5042807;28;20541;-75